Flight Briefing for CPX119

Departure Arrival
Los Angeles International Airport (KLAX)
Click to view FAA NOTAMS
Ted Stevens Anchorage International Airport (PANC)
Click to view FAA NOTAMS
Departure Time Arrival Time
N/A N/A
Aircraft Distance
MD-11SF 2089nm
Departure METAR Arrival METAR
KLAX 192153Z 23011KT 10SM FEW050 FEW160 13/M02 A3011 RMK AO2 SLP195 T01331022 PANC 192153Z 36009KT 10SM SCT085 M02/M11 A3014 RMK AO2 SLP207 T10171111
Suggested Route
SUMMR1 SCTRR PYE J143 ENI FOT BOXER B453 MDO WITTI4


View recent IFR Routes data
Notes



Charts and Procedures

Charts for KLAX
No chart available
Charts for PANC
No chart available

Ventusky Weather




{"cat":null,"equip":null,"transponder":null,"pbn":"PBN\/","maxpax":null,"oew":"0.0","mzfw":"0.0","mtow":"0.0","mlw":"0.0","maxfuel":"0.0"} DEVELOPMENTAL TEST USE ONLY